createdAt,value
2023-02-01T00:01:31.927Z,2.38
2023-02-01T00:03:59.933Z,2.50
2023-02-01T00:06:27.811Z,2.42
2023-02-01T00:08:56.175Z,3.58
2023-02-01T00:11:25.979Z,3.40
2023-02-01T00:13:54.118Z,3.38
2023-02-01T00:16:23.950Z,3.05
2023-02-01T00:18:53.837Z,3.22
2023-02-01T00:21:24.766Z,3.97
2023-02-01T00:23:52.721Z,3.53
2023-02-01T00:26:23.225Z,4.72
2023-02-01T00:28:52.633Z,3.88
2023-02-01T00:31:20.613Z,4.18
2023-02-01T00:33:49.633Z,4.30
2023-02-01T00:36:17.884Z,3.63
2023-02-01T00:38:46.467Z,3.35
2023-02-01T00:41:16.753Z,3.40
2023-02-01T00:43:45.970Z,3.55
2023-02-01T00:46:18.349Z,3.22
2023-02-01T00:48:46.779Z,3.38
2023-02-01T00:51:16.769Z,3.63
2023-02-01T00:53:45.326Z,2.75
2023-02-01T00:56:13.910Z,3.10
2023-02-01T00:58:44.457Z,3.83
2023-02-01T01:01:18.448Z,3.45
2023-02-01T01:03:48.328Z,3.10
2023-02-01T01:06:17.805Z,3.20
2023-02-01T01:08:46.116Z,2.97
2023-02-01T01:11:16.802Z,3.45
2023-02-01T01:13:45.061Z,3.35
2023-02-01T01:16:13.558Z,3.15
2023-02-01T01:18:44.587Z,3.22
2023-02-01T01:21:16.112Z,3.50
2023-02-01T01:23:44.403Z,3.30
2023-02-01T01:26:15.560Z,3.50
2023-02-01T01:28:43.705Z,3.58
2023-02-01T01:31:12.498Z,3.78
2023-02-01T01:33:41.904Z,3.53
2023-02-01T01:36:12.072Z,3.60
2023-02-01T01:38:40.214Z,3.33
2023-02-01T01:41:08.846Z,3.72
2023-02-01T01:43:57.642Z,3.53
2023-02-01T01:46:27.809Z,3.38
2023-02-01T01:49:06.149Z,2.83
2023-02-01T01:51:38.105Z,2.92
2023-02-01T01:54:12.927Z,3.30
2023-02-01T01:56:41.922Z,3.05
2023-02-01T01:59:11.371Z,2.58
2023-02-01T02:01:39.373Z,2.83
2023-02-01T02:04:08.835Z,3.35
2023-02-01T02:06:45.989Z,3.00
2023-02-01T02:09:17.887Z,3.35
2023-02-01T02:11:45.732Z,3.20
2023-02-01T02:14:17.495Z,3.00
2023-02-01T02:17:00.544Z,3.25
2023-02-01T02:20:05.912Z,3.42
2023-02-01T02:23:11.431Z,3.13
2023-02-01T02:26:01.398Z,3.33
2023-02-01T02:29:02.712Z,3.10
2023-02-01T02:32:00.141Z,3.35
2023-02-01T02:34:34.186Z,2.95
2023-02-01T02:37:10.533Z,3.25
2023-02-01T02:39:51.235Z,2.90
2023-02-01T02:42:45.597Z,4.22
2023-02-01T02:45:37.259Z,3.13
2023-02-01T02:48:11.824Z,3.28
2023-02-01T02:51:02.033Z,3.60
2023-02-01T02:53:53.052Z,3.38
2023-02-01T02:56:40.883Z,3.30
2023-02-01T02:59:28.344Z,3.88
2023-02-01T03:02:14.585Z,3.50
2023-02-01T03:04:43.660Z,3.83
2023-02-01T03:07:37.068Z,4.10
2023-02-01T03:10:12.798Z,3.60
2023-02-01T03:12:59.589Z,3.33
2023-02-01T03:15:34.159Z,4.10
2023-02-01T03:18:08.173Z,3.78
2023-02-01T03:20:38.882Z,3.38
2023-02-01T03:23:07.779Z,4.22
2023-02-01T03:25:37.650Z,4.38
2023-02-01T03:28:10.423Z,3.38
2023-02-01T03:30:42.911Z,3.28
2023-02-01T03:35:58.599Z,3.88
2023-02-01T03:38:31.369Z,3.63
2023-02-01T03:41:05.094Z,3.47
2023-02-01T03:43:39.458Z,3.05
2023-02-01T03:46:14.143Z,3.38
2023-02-01T03:48:42.790Z,2.75
2023-02-01T03:51:16.272Z,3.67
2023-02-01T03:53:48.198Z,4.07
2023-02-01T03:56:20.183Z,3.88
2023-02-01T03:58:59.908Z,3.30
2023-02-01T04:01:29.839Z,3.20
2023-02-01T04:03:58.704Z,3.60
2023-02-01T04:06:27.155Z,3.58
2023-02-01T04:08:55.282Z,3.55
2023-02-01T04:11:24.561Z,4.03
2023-02-01T04:13:52.455Z,3.80
2023-02-01T04:16:20.379Z,3.72
2023-02-01T04:18:48.357Z,4.13
2023-02-01T04:21:16.203Z,3.92
2023-02-01T04:23:44.073Z,3.15
2023-02-01T04:26:11.980Z,4.55
2023-02-01T04:28:41.256Z,4.35
2023-02-01T04:31:09.537Z,3.55
2023-02-01T04:33:37.541Z,3.53
2023-02-01T04:36:05.844Z,4.10
2023-02-01T04:38:33.909Z,3.67
2023-02-01T04:41:02.205Z,3.75
2023-02-01T04:43:30.328Z,3.40
2023-02-01T04:46:00.069Z,3.22
2023-02-01T04:48:28.701Z,3.40
2023-02-01T04:50:56.925Z,4.10
2023-02-01T04:53:25.169Z,4.03
2023-02-01T04:55:53.474Z,3.33
2023-02-01T04:58:24.619Z,3.67
2023-02-01T05:00:53.657Z,3.17
2023-02-01T05:03:23.511Z,3.42
2023-02-01T05:05:54.626Z,3.10
2023-02-01T05:08:23.688Z,3.53
2023-02-01T05:10:51.987Z,3.40
2023-02-01T05:13:40.065Z,2.92
2023-02-01T05:16:08.749Z,3.42
2023-02-01T05:18:38.266Z,3.63
2023-02-01T05:21:07.911Z,3.85
2023-02-01T05:23:56.360Z,4.10
2023-02-01T05:26:27.534Z,3.65
2023-02-01T05:28:58.745Z,3.97
2023-02-01T05:31:27.065Z,4.05
2023-02-01T05:33:56.507Z,4.53
2023-02-01T05:36:25.122Z,3.92
2023-02-01T05:38:53.344Z,4.65
2023-02-01T05:41:25.472Z,4.45
2023-02-01T05:43:57.217Z,4.38
2023-02-01T05:46:25.667Z,3.85
2023-02-01T05:48:54.142Z,4.70
2023-02-01T05:51:23.722Z,4.20
2023-02-01T05:53:52.223Z,4.00
2023-02-01T05:56:20.545Z,4.30
2023-02-01T05:58:51.125Z,3.28
2023-02-01T06:01:19.251Z,3.30
2023-02-01T06:03:47.525Z,3.60
2023-02-01T06:06:15.676Z,3.05
2023-02-01T06:08:45.011Z,3.42
2023-02-01T06:11:30.573Z,3.15
2023-02-01T06:14:00.259Z,3.90
2023-02-01T06:16:29.475Z,4.25
2023-02-01T06:18:57.459Z,3.13
2023-02-01T06:21:25.656Z,3.50
2023-02-01T06:23:55.856Z,3.35
2023-02-01T06:26:24.103Z,3.55
2023-02-01T06:28:52.234Z,3.83
2023-02-01T06:31:20.222Z,3.45
2023-02-01T06:33:49.799Z,3.50
2023-02-01T06:36:19.721Z,2.83
2023-02-01T06:38:47.659Z,2.80
2023-02-01T06:41:17.479Z,2.78
2023-02-01T06:43:46.530Z,3.08
2023-02-01T06:46:15.564Z,3.55
2023-02-01T06:48:43.663Z,3.20
2023-02-01T06:51:21.088Z,3.15
2023-02-01T06:53:49.154Z,3.38
2023-02-01T06:56:18.850Z,3.45
2023-02-01T06:58:47.153Z,3.45
2023-02-01T07:01:16.605Z,3.72
2023-02-01T07:03:44.887Z,3.90
2023-02-01T07:06:12.736Z,3.70
2023-02-01T07:08:40.862Z,3.90
2023-02-01T07:11:10.730Z,3.20
2023-02-01T07:13:40.724Z,3.38
2023-02-01T07:16:12.032Z,3.17
2023-02-01T07:18:40.122Z,3.70
2023-02-01T07:21:08.237Z,2.80
2023-02-01T07:23:36.416Z,2.53
2023-02-01T07:26:06.006Z,3.58
2023-02-01T07:28:35.810Z,3.30
2023-02-01T07:31:09.704Z,3.17
2023-02-01T07:33:37.782Z,2.92
2023-02-01T07:36:07.717Z,3.55
2023-02-01T07:38:36.068Z,3.10
2023-02-01T07:41:06.753Z,3.15
2023-02-01T07:43:35.125Z,3.00
2023-02-01T07:46:04.798Z,3.20
2023-02-01T07:48:35.647Z,3.10
2023-02-01T07:51:07.158Z,3.03
2023-02-01T07:53:36.135Z,3.05
2023-02-01T07:56:12.304Z,3.20
2023-02-01T07:58:40.266Z,3.15
2023-02-01T08:01:25.360Z,2.60
2023-02-01T08:03:56.635Z,2.85
2023-02-01T08:06:25.769Z,2.97
2023-02-01T08:08:54.480Z,3.00
2023-02-01T08:11:23.899Z,3.15
2023-02-01T08:13:52.180Z,2.88
2023-02-01T08:16:22.036Z,2.78
2023-02-01T08:18:50.009Z,2.45
2023-02-01T08:21:22.948Z,2.28
2023-02-01T08:23:51.303Z,2.63
2023-02-01T08:26:21.250Z,2.55
2023-02-01T08:28:51.156Z,2.28
2023-02-01T08:31:21.169Z,2.75
2023-02-01T08:33:51.654Z,2.17
2023-02-01T08:36:21.339Z,2.00
2023-02-01T08:38:49.387Z,2.42
2023-02-01T08:41:19.726Z,2.30
2023-02-01T08:43:48.779Z,2.80
2023-02-01T08:46:17.276Z,3.13
2023-02-01T08:48:46.007Z,3.00
2023-02-01T08:51:15.660Z,3.33
2023-02-01T08:53:45.069Z,3.13
2023-02-01T08:56:14.834Z,3.15
2023-02-01T08:58:43.429Z,2.90
2023-02-01T09:01:13.590Z,3.28
2023-02-01T09:03:41.709Z,3.00
2023-02-01T09:06:12.825Z,3.40
2023-02-01T09:08:42.125Z,2.80
2023-02-01T09:11:15.286Z,3.35
2023-02-01T09:13:43.706Z,2.83
2023-02-01T09:16:11.939Z,3.25
2023-02-01T09:18:50.343Z,2.85
2023-02-01T09:21:27.772Z,3.13
2023-02-01T09:23:55.718Z,3.00
2023-02-01T09:26:32.111Z,2.97
2023-02-01T09:29:01.037Z,2.20
2023-02-01T09:31:29.135Z,2.35
2023-02-01T09:33:57.427Z,2.63
2023-02-01T09:36:29.385Z,2.80
2023-02-01T09:38:58.169Z,2.60
2023-02-01T09:41:40.046Z,2.55
2023-02-01T09:44:20.250Z,2.53
2023-02-01T09:46:49.083Z,2.92
2023-02-01T09:49:22.030Z,2.35
2023-02-01T09:51:53.043Z,3.47
2023-02-01T09:54:24.079Z,2.45
2023-02-01T09:56:58.359Z,2.85
2023-02-01T09:59:34.918Z,2.40
2023-02-01T10:02:05.572Z,2.13
2023-02-01T10:04:34.626Z,2.92
2023-02-01T10:07:17.552Z,2.40
2023-02-01T10:10:00.568Z,1.90
2023-02-01T10:12:58.197Z,3.10
2023-02-01T10:15:37.746Z,3.10
2023-02-01T10:18:27.722Z,2.42
2023-02-01T10:21:03.195Z,2.00
2023-02-01T10:23:55.142Z,2.00
2023-02-01T10:26:25.129Z,2.17
2023-02-01T10:28:58.333Z,2.25
2023-02-01T10:31:30.463Z,2.63
2023-02-01T10:34:03.347Z,2.28
2023-02-01T10:36:36.012Z,2.70
2023-02-01T10:39:12.717Z,2.53
2023-02-01T10:41:43.771Z,2.15
2023-02-01T10:44:16.113Z,2.72
2023-02-01T10:46:44.181Z,2.80
2023-02-01T10:49:19.635Z,2.30
2023-02-01T10:51:52.283Z,3.00
2023-02-01T10:54:22.471Z,2.20
2023-02-01T10:56:51.417Z,2.90
2023-02-01T10:59:22.359Z,2.80
2023-02-01T11:01:52.232Z,2.50
2023-02-01T11:04:22.101Z,2.38
2023-02-01T11:06:53.123Z,2.53
2023-02-01T11:09:23.263Z,2.60
2023-02-01T11:11:59.850Z,2.13
2023-02-01T11:14:39.751Z,2.45
2023-02-01T11:17:25.845Z,2.35
2023-02-01T11:20:00.746Z,2.72
2023-02-01T11:22:30.597Z,2.50
2023-02-01T11:25:00.024Z,2.15
2023-02-01T11:27:28.432Z,2.28
2023-02-01T11:30:03.048Z,2.33
2023-02-01T11:32:32.147Z,2.58
2023-02-01T11:35:03.062Z,2.90
2023-02-01T11:37:34.594Z,2.63
2023-02-01T11:40:05.625Z,2.10
2023-02-01T11:42:34.212Z,2.55
2023-02-01T11:45:22.973Z,3.25
2023-02-01T11:47:54.616Z,2.40
2023-02-01T11:50:32.231Z,2.40
2023-02-01T11:53:20.515Z,2.25
2023-02-01T11:56:09.334Z,2.30
2023-02-01T11:58:59.647Z,2.50
2023-02-01T12:01:42.657Z,2.40
2023-02-01T12:04:38.507Z,2.40
2023-02-01T12:07:16.644Z,2.70
2023-02-01T12:10:02.153Z,2.30
2023-02-01T12:12:36.009Z,2.63
2023-02-01T12:15:24.596Z,2.60
2023-02-01T12:18:13.035Z,3.45
2023-02-01T12:21:05.538Z,2.10
2023-02-01T12:23:56.729Z,2.92
2023-02-01T12:26:48.990Z,2.17
2023-02-01T12:29:46.965Z,1.98
2023-02-01T12:32:26.319Z,2.58
2023-02-01T12:35:21.424Z,2.15
2023-02-01T12:38:01.089Z,2.75
2023-02-01T12:40:39.466Z,2.50
2023-02-01T12:43:16.294Z,2.25
2023-02-01T12:45:47.770Z,2.45
2023-02-01T12:48:29.076Z,2.40
2023-02-01T12:51:02.916Z,2.28
2023-02-01T12:53:44.277Z,2.83
2023-02-01T12:56:23.435Z,2.33
2023-02-01T12:58:55.623Z,2.40
2023-02-01T13:01:29.482Z,2.38
2023-02-01T13:04:06.829Z,2.40
2023-02-01T13:06:45.331Z,3.67
2023-02-01T13:09:22.122Z,2.05
2023-02-01T13:11:50.844Z,1.98
2023-02-01T13:14:29.463Z,2.40
2023-02-01T13:17:02.107Z,2.17
2023-02-01T13:19:43.094Z,2.50
2023-02-01T13:22:17.692Z,2.70
2023-02-01T13:24:49.514Z,2.15
2023-02-01T13:27:19.284Z,2.45
2023-02-01T13:29:54.290Z,2.13
2023-02-01T13:33:37.265Z,2.00
2023-02-01T13:36:04.346Z,1.77
2023-02-01T13:39:06.625Z,2.70
2023-02-01T13:41:41.592Z,2.20
2023-02-01T13:44:16.271Z,2.08
2023-02-01T13:46:47.241Z,2.33
2023-02-01T13:49:23.605Z,2.10
2023-02-01T13:51:53.763Z,2.13
2023-02-01T13:54:31.875Z,2.30
2023-02-01T13:57:01.285Z,2.10
2023-02-01T13:59:53.356Z,2.47
2023-02-01T14:02:52.908Z,1.83
2023-02-01T14:06:12.665Z,2.35
2023-02-01T14:08:48.210Z,2.10
2023-02-01T14:11:39.251Z,1.75
2023-02-01T14:14:45.810Z,2.13
2023-02-01T14:17:38.944Z,2.38
2023-02-01T14:20:44.715Z,2.05
2023-02-01T14:23:19.395Z,2.38
2023-02-01T14:25:49.416Z,2.15
2023-02-01T14:28:27.337Z,1.60
2023-02-01T14:30:58.207Z,2.03
2023-02-01T14:33:28.936Z,1.70
2023-02-01T14:36:08.545Z,2.20
2023-02-01T14:38:37.909Z,1.75
2023-02-01T14:41:30.504Z,1.90
2023-02-01T14:44:26.592Z,2.03
2023-02-01T14:47:28.806Z,2.05
2023-02-01T14:50:06.373Z,2.13
2023-02-01T14:52:39.282Z,1.85
2023-02-01T14:55:12.138Z,1.85
2023-02-01T14:57:42.663Z,1.52
2023-02-01T15:00:20.670Z,2.30
2023-02-01T15:02:51.372Z,2.22
2023-02-01T15:05:32.760Z,1.75
2023-02-01T15:08:07.434Z,2.22
2023-02-01T15:10:43.998Z,1.52
2023-02-01T15:13:21.957Z,2.22
2023-02-01T15:16:08.808Z,1.83
2023-02-01T15:18:37.264Z,2.25
2023-02-01T15:21:28.202Z,1.98
2023-02-01T15:24:12.596Z,1.90
2023-02-01T15:26:41.242Z,2.05
2023-02-01T15:29:13.468Z,1.58
2023-02-01T15:31:45.527Z,2.17
2023-02-01T15:34:14.576Z,2.05
2023-02-01T15:37:00.278Z,1.67
2023-02-01T15:39:31.910Z,1.70
2023-02-01T15:42:03.009Z,2.72
2023-02-01T15:44:35.748Z,2.10
2023-02-01T15:47:15.079Z,3.17
2023-02-01T15:49:45.395Z,2.53
2023-02-01T15:52:26.429Z,2.08
2023-02-01T15:54:57.748Z,1.52
2023-02-01T15:57:32.609Z,1.60
2023-02-01T16:00:06.600Z,2.78
2023-02-01T16:02:40.124Z,1.65
2023-02-01T16:05:28.504Z,2.33
2023-02-01T16:08:05.053Z,2.30
2023-02-01T16:10:42.331Z,1.90
2023-02-01T16:13:10.945Z,1.67
2023-02-01T16:15:39.607Z,2.13
2023-02-01T16:18:10.693Z,2.00
2023-02-01T16:20:42.275Z,2.08
2023-02-01T16:23:12.443Z,2.53
2023-02-01T16:25:44.235Z,2.38
2023-02-01T16:28:12.590Z,2.22
2023-02-01T16:30:41.173Z,2.33
2023-02-01T16:33:19.312Z,2.60
2023-02-01T16:35:48.165Z,2.53
2023-02-01T16:38:19.641Z,2.40
2023-02-01T16:40:48.605Z,1.95
2023-02-01T16:43:18.759Z,2.22
2023-02-01T16:45:49.688Z,2.20
2023-02-01T16:48:27.793Z,2.95
2023-02-01T16:50:57.948Z,2.30
2023-02-01T16:53:28.753Z,2.58
2023-02-01T16:55:58.286Z,1.63
2023-02-01T16:58:29.185Z,1.88
2023-02-01T17:00:57.365Z,2.03
2023-02-01T17:03:26.710Z,2.35
2023-02-01T17:05:57.565Z,2.63
2023-02-01T17:08:36.899Z,1.90
2023-02-01T17:11:05.974Z,2.85
2023-02-01T17:13:37.378Z,2.42
2023-02-01T17:16:11.381Z,1.38
2023-02-01T17:18:43.016Z,2.63
2023-02-01T17:21:12.805Z,3.00
2023-02-01T17:23:41.332Z,2.30
2023-02-01T17:26:11.554Z,2.00
2023-02-01T17:28:40.127Z,2.30
2023-02-01T17:31:08.948Z,2.40
2023-02-01T17:33:41.083Z,2.28
2023-02-01T17:36:15.589Z,1.73
2023-02-01T17:38:53.607Z,2.05
2023-02-01T17:41:27.993Z,2.63
2023-02-01T17:43:56.082Z,2.17
2023-02-01T17:46:27.032Z,2.00
2023-02-01T17:48:56.903Z,3.90
2023-02-01T17:51:29.305Z,2.40
2023-02-01T17:53:57.471Z,2.08
2023-02-01T17:56:26.673Z,2.53
2023-02-01T17:58:55.774Z,1.92
2023-02-01T18:01:25.472Z,2.38
2023-02-01T18:03:53.742Z,3.03
2023-02-01T18:06:24.545Z,2.30
2023-02-01T18:08:52.515Z,2.50
2023-02-01T18:11:21.615Z,2.30
2023-02-01T18:13:53.999Z,2.47
2023-02-01T18:16:23.880Z,2.30
2023-02-01T18:18:52.768Z,1.88
2023-02-01T18:21:23.905Z,2.13
2023-02-01T18:23:51.880Z,2.30
2023-02-01T18:26:22.000Z,2.63
2023-02-01T18:28:52.816Z,1.92
2023-02-01T18:31:24.721Z,2.45
2023-02-01T18:33:54.520Z,1.88
2023-02-01T18:36:24.618Z,2.22
2023-02-01T18:38:54.170Z,2.53
2023-02-01T18:41:23.196Z,2.33
2023-02-01T18:43:52.160Z,2.33
2023-02-01T18:46:21.691Z,2.47
2023-02-01T18:48:50.146Z,2.10
2023-02-01T18:51:24.592Z,2.53
2023-02-01T18:53:54.633Z,2.30
2023-02-01T18:56:23.022Z,2.60
2023-02-01T18:58:51.410Z,2.40
2023-02-01T19:01:21.795Z,2.13
2023-02-01T19:03:53.652Z,2.42
2023-02-01T19:06:31.644Z,3.80
2023-02-01T19:09:01.715Z,1.70
2023-02-01T19:11:34.578Z,2.30
2023-02-01T19:14:04.851Z,2.35
2023-02-01T19:16:34.098Z,2.63
2023-02-01T19:19:02.341Z,2.40
2023-02-01T19:21:30.664Z,1.80
2023-02-01T19:24:00.527Z,2.33
2023-02-01T19:26:28.717Z,1.73
2023-02-01T19:28:59.494Z,2.50
2023-02-01T19:31:27.949Z,2.20
2023-02-01T19:34:00.774Z,2.42
2023-02-01T19:36:29.811Z,2.60
2023-02-01T19:38:58.314Z,3.03
2023-02-01T19:41:27.845Z,2.67
2023-02-01T19:43:56.185Z,2.70
2023-02-01T19:46:26.965Z,2.40
2023-02-01T19:48:57.685Z,3.17
2023-02-01T19:51:26.037Z,3.30
2023-02-01T19:53:54.370Z,2.40
2023-02-01T19:56:25.113Z,2.10
2023-02-01T19:58:57.472Z,1.92
2023-02-01T20:01:33.037Z,2.78
2023-02-01T20:04:02.894Z,2.55
2023-02-01T20:06:31.549Z,2.10
2023-02-01T20:09:02.765Z,2.17
2023-02-01T20:11:33.188Z,2.15
2023-02-01T20:14:04.656Z,2.83
2023-02-01T20:16:32.815Z,2.72
2023-02-01T20:19:01.153Z,2.85
2023-02-01T20:21:31.874Z,2.05
2023-02-01T20:24:03.142Z,2.17
2023-02-01T20:26:33.800Z,2.13
2023-02-01T20:29:04.101Z,1.95
2023-02-01T20:31:35.364Z,2.42
2023-02-01T20:34:04.439Z,2.50
2023-02-01T20:36:33.290Z,2.25
2023-02-01T20:39:02.490Z,2.53
2023-02-01T20:41:30.773Z,1.75
2023-02-01T20:43:58.959Z,2.10
2023-02-01T20:46:30.136Z,2.00
2023-02-01T20:49:01.201Z,1.83
2023-02-01T20:51:29.475Z,2.00
2023-02-01T20:53:57.937Z,2.72
2023-02-01T20:56:26.175Z,1.73
2023-02-01T20:59:03.466Z,1.98
2023-02-01T21:01:53.180Z,1.90
2023-02-01T21:04:27.530Z,2.20
2023-02-01T21:06:56.071Z,1.60
2023-02-01T21:09:25.046Z,1.92
2023-02-01T21:11:55.519Z,2.17
2023-02-01T21:14:23.912Z,1.95
2023-02-01T21:16:53.716Z,2.20
2023-02-01T21:19:22.456Z,2.05
2023-02-01T21:21:50.859Z,1.80
2023-02-01T21:24:24.539Z,2.25
2023-02-01T21:26:52.667Z,2.38
2023-02-01T21:29:31.129Z,1.75
2023-02-01T21:32:01.260Z,1.60
2023-02-01T21:34:31.850Z,2.80
2023-02-01T21:37:01.021Z,2.13
2023-02-01T21:39:31.446Z,2.03
2023-02-01T21:42:22.037Z,1.95
2023-02-01T21:44:52.886Z,2.63
2023-02-01T21:47:26.977Z,2.13
2023-02-01T21:49:58.529Z,2.45
2023-02-01T21:52:28.165Z,2.53
2023-02-01T21:55:02.438Z,2.20
2023-02-01T21:57:44.861Z,2.03
2023-02-01T22:00:18.360Z,2.28
2023-02-01T22:02:51.257Z,2.90
2023-02-01T22:05:22.832Z,3.05
2023-02-01T22:07:53.877Z,2.47
2023-02-01T22:10:23.779Z,2.60
2023-02-01T22:12:52.488Z,2.00
2023-02-01T22:15:20.576Z,2.35
2023-02-01T22:17:50.096Z,3.10
2023-02-01T22:20:19.469Z,2.38
2023-02-01T22:22:52.470Z,2.75
2023-02-01T22:25:25.114Z,2.13
2023-02-01T22:28:30.943Z,2.28
2023-02-01T22:30:43.316Z,2.30
2023-02-01T22:33:15.209Z,2.08
2023-02-01T22:35:51.008Z,2.22
2023-02-01T22:38:22.239Z,2.85
2023-02-01T22:40:56.880Z,2.65
2023-02-01T22:43:25.595Z,2.20
2023-02-01T22:45:56.664Z,2.60
2023-02-01T22:48:29.846Z,2.47
2023-02-01T22:50:59.242Z,2.05
2023-02-01T22:53:28.183Z,2.53
2023-02-01T22:56:01.374Z,2.80
2023-02-01T22:58:29.742Z,2.75
2023-02-01T23:01:00.498Z,2.97
2023-02-01T23:03:30.245Z,2.42
2023-02-01T23:06:01.173Z,2.40
2023-02-01T23:08:29.377Z,2.47
2023-02-01T23:11:02.649Z,2.20
2023-02-01T23:13:31.122Z,2.40
2023-02-01T23:16:04.155Z,2.47
2023-02-01T23:18:34.195Z,1.67
2023-02-01T23:21:09.353Z,2.30
2023-02-01T23:23:38.215Z,2.67
2023-02-01T23:26:10.361Z,2.28
2023-02-01T23:28:43.694Z,1.90
2023-02-01T23:31:15.955Z,1.70
2023-02-01T23:33:49.237Z,2.40
2023-02-01T23:36:18.405Z,2.80
2023-02-01T23:38:47.441Z,2.13
2023-02-01T23:41:21.102Z,2.25
2023-02-01T23:44:01.669Z,2.58
2023-02-01T23:46:32.954Z,2.20
2023-02-01T23:49:07.066Z,2.15
2023-02-01T23:51:35.807Z,2.47
2023-02-01T23:54:07.160Z,2.30
2023-02-01T23:56:40.159Z,2.75
2023-02-01T23:59:13.272Z,2.25
